createdAt,value
2023-01-11T00:00:03.640Z,988.68
2023-01-11T00:00:14.139Z,988.74
2023-01-11T00:00:24.649Z,988.69
2023-01-11T00:00:35.159Z,988.70
2023-01-11T00:00:45.650Z,988.73
2023-01-11T00:00:56.156Z,988.71
2023-01-11T00:01:06.662Z,988.70
2023-01-11T00:01:17.163Z,988.67
2023-01-11T00:01:27.670Z,988.70
2023-01-11T00:01:38.178Z,988.69
2023-01-11T00:01:48.679Z,988.68
2023-01-11T00:01:59.256Z,988.69
2023-01-11T00:02:09.805Z,988.73
2023-01-11T00:02:20.266Z,988.70
2023-01-11T00:02:30.776Z,988.65
2023-01-11T00:02:41.237Z,988.67
2023-01-11T00:02:51.701Z,988.66
2023-01-11T00:03:02.214Z,988.66
2023-01-11T00:03:12.707Z,988.69
2023-01-11T00:03:23.227Z,988.66
2023-01-11T00:03:33.713Z,988.65
2023-01-11T00:03:44.224Z,988.69
2023-01-11T00:03:54.743Z,988.68
2023-01-11T00:04:05.221Z,988.68
2023-01-11T00:04:15.771Z,988.69
2023-01-11T00:04:26.266Z,988.70
2023-01-11T00:04:36.814Z,988.68
2023-01-11T00:04:47.319Z,988.73
2023-01-11T00:04:57.793Z,988.64
2023-01-11T00:05:08.247Z,988.63
2023-01-11T00:05:18.754Z,988.65
2023-01-11T00:05:29.257Z,988.69
2023-01-11T00:05:39.757Z,988.72
2023-01-11T00:05:50.275Z,988.67
2023-01-11T00:06:00.769Z,988.72
2023-01-11T00:06:11.273Z,988.71
2023-01-11T00:06:21.774Z,988.69
2023-01-11T00:06:32.286Z,988.71
2023-01-11T00:06:42.849Z,988.70
2023-01-11T00:06:53.332Z,988.70
2023-01-11T00:07:03.785Z,988.70
2023-01-11T00:07:14.288Z,988.69
2023-01-11T00:07:24.795Z,988.70
2023-01-11T00:07:35.303Z,988.72
2023-01-11T00:07:45.805Z,988.69
2023-01-11T00:07:56.301Z,988.66
2023-01-11T00:08:06.844Z,988.68
2023-01-11T00:08:17.307Z,988.73
2023-01-11T00:08:27.835Z,988.71
2023-01-11T00:08:38.326Z,988.73
2023-01-11T00:08:48.820Z,988.69
2023-01-11T00:08:59.317Z,988.69
2023-01-11T00:09:09.837Z,988.67
2023-01-11T00:09:20.323Z,988.70
2023-01-11T00:09:30.837Z,988.73
2023-01-11T00:09:41.332Z,988.70
2023-01-11T00:09:51.844Z,988.67
2023-01-11T00:10:02.336Z,988.68
2023-01-11T00:10:12.848Z,988.72
2023-01-11T00:10:23.365Z,988.69
2023-01-11T00:10:33.864Z,988.70
2023-01-11T00:10:44.353Z,988.72
2023-01-11T00:10:54.859Z,988.71
2023-01-11T00:11:05.373Z,988.70
2023-01-11T00:11:15.870Z,988.70
2023-01-11T00:11:26.376Z,988.68
2023-01-11T00:11:36.871Z,988.74
2023-01-11T00:11:47.372Z,988.64
2023-01-11T00:11:57.880Z,988.71
2023-01-11T00:12:08.382Z,988.67
2023-01-11T00:12:18.882Z,988.68
2023-01-11T00:12:29.385Z,988.71
2023-01-11T00:12:39.890Z,988.70
2023-01-11T00:12:50.392Z,988.68
2023-01-11T00:13:00.905Z,988.66
2023-01-11T00:13:11.393Z,988.68
2023-01-11T00:13:21.902Z,988.68
2023-01-11T00:13:32.406Z,988.67
2023-01-11T00:13:42.908Z,988.65
2023-01-11T00:13:53.416Z,988.68
2023-01-11T00:14:03.922Z,988.65
2023-01-11T00:14:14.422Z,988.64
2023-01-11T00:14:24.951Z,988.60
2023-01-11T00:14:35.433Z,988.65
2023-01-11T00:14:45.965Z,988.67
2023-01-11T00:14:56.443Z,988.70
2023-01-11T00:15:06.951Z,988.62
2023-01-11T00:15:17.444Z,988.67
2023-01-11T00:15:28.096Z,988.66
2023-01-11T00:15:38.580Z,988.66
2023-01-11T00:15:48.975Z,988.66
2023-01-11T00:15:59.569Z,988.67
2023-01-11T00:16:10.091Z,988.62
2023-01-11T00:16:20.534Z,988.63
2023-01-11T00:16:30.977Z,988.63
2023-01-11T00:16:41.474Z,988.66
2023-01-11T00:16:51.998Z,988.67
2023-01-11T00:17:02.485Z,988.63
2023-01-11T00:17:12.991Z,988.62
2023-01-11T00:17:23.492Z,988.57
2023-01-11T00:17:34.005Z,988.60
2023-01-11T00:17:44.497Z,988.64
2023-01-11T00:17:55.015Z,988.65
2023-01-11T00:18:05.530Z,988.68
2023-01-11T00:18:16.030Z,988.68
2023-01-11T00:18:26.514Z,988.65
2023-01-11T00:18:37.027Z,988.66
2023-01-11T00:18:47.529Z,988.63
2023-01-11T00:18:58.036Z,988.64
2023-01-11T00:19:08.535Z,988.64
2023-01-11T00:19:19.049Z,988.64
2023-01-11T00:19:29.540Z,988.65
2023-01-11T00:19:40.057Z,988.69
2023-01-11T00:19:50.554Z,988.64
2023-01-11T00:20:01.067Z,988.66
2023-01-11T00:20:11.565Z,988.61
2023-01-11T00:20:22.068Z,988.69
2023-01-11T00:20:32.573Z,988.63
2023-01-11T00:20:43.075Z,988.66
2023-01-11T00:20:53.603Z,988.64
2023-01-11T00:21:04.084Z,988.63
2023-01-11T00:21:14.587Z,988.68
2023-01-11T00:21:25.094Z,988.62
2023-01-11T00:21:35.593Z,988.66
2023-01-11T00:21:46.100Z,988.63
2023-01-11T00:21:56.626Z,988.61
2023-01-11T00:22:07.106Z,988.59
2023-01-11T00:22:17.612Z,988.60
2023-01-11T00:22:28.118Z,988.60
2023-01-11T00:22:38.609Z,988.62
2023-01-11T00:22:49.121Z,988.64
2023-01-11T00:22:59.621Z,988.58
2023-01-11T00:23:10.127Z,988.62
2023-01-11T00:23:20.642Z,988.58
2023-01-11T00:23:31.140Z,988.60
2023-01-11T00:23:41.650Z,988.54
2023-01-11T00:23:52.153Z,988.60
2023-01-11T00:24:02.656Z,988.57
2023-01-11T00:24:13.161Z,988.58
2023-01-11T00:24:23.661Z,988.59
2023-01-11T00:24:34.173Z,988.54
2023-01-11T00:24:44.677Z,988.57
2023-01-11T00:24:55.188Z,988.55
2023-01-11T00:25:05.694Z,988.57
2023-01-11T00:25:16.218Z,988.56
2023-01-11T00:25:26.694Z,988.54
2023-01-11T00:25:37.215Z,988.57
2023-01-11T00:25:47.707Z,988.55
2023-01-11T00:25:58.218Z,988.49
2023-01-11T00:26:08.729Z,988.54
2023-01-11T00:26:19.226Z,988.55
2023-01-11T00:26:29.741Z,988.58
2023-01-11T00:26:40.237Z,988.54
2023-01-11T00:26:50.735Z,988.50
2023-01-11T00:27:01.265Z,988.52
2023-01-11T00:27:11.753Z,988.53
2023-01-11T00:27:22.252Z,988.54
2023-01-11T00:27:32.754Z,988.55
2023-01-11T00:27:43.267Z,988.60
2023-01-11T00:27:53.769Z,988.55
2023-01-11T00:28:04.270Z,988.54
2023-01-11T00:28:14.780Z,988.56
2023-01-11T00:28:25.281Z,988.58
2023-01-11T00:28:35.794Z,988.56
2023-01-11T00:28:46.294Z,988.56
2023-01-11T00:28:56.810Z,988.55
2023-01-11T00:29:07.300Z,988.53
2023-01-11T00:29:17.809Z,988.57
2023-01-11T00:29:28.312Z,988.56
2023-01-11T00:29:38.838Z,988.55
2023-01-11T00:29:49.324Z,988.56
2023-01-11T00:29:59.824Z,988.56
2023-01-11T00:30:10.328Z,988.53
2023-01-11T00:30:20.839Z,988.55
2023-01-11T00:30:31.334Z,988.56
2023-01-11T00:30:41.847Z,988.53
2023-01-11T00:30:52.422Z,988.50
2023-01-11T00:31:02.887Z,988.54
2023-01-11T00:31:13.421Z,988.55
2023-01-11T00:31:23.957Z,988.56
2023-01-11T00:31:34.449Z,988.55
2023-01-11T00:31:44.869Z,988.56
2023-01-11T00:31:55.383Z,988.56
2023-01-11T00:32:05.883Z,988.61
2023-01-11T00:32:16.386Z,988.54
2023-01-11T00:32:26.893Z,988.52
2023-01-11T00:32:37.402Z,988.52
2023-01-11T00:32:47.936Z,988.54
2023-01-11T00:32:58.428Z,988.53
2023-01-11T00:33:08.919Z,988.57
2023-01-11T00:33:19.442Z,988.55
2023-01-11T00:33:29.949Z,988.55
2023-01-11T00:33:40.443Z,988.52
2023-01-11T00:33:50.948Z,988.55
2023-01-11T00:34:01.458Z,988.51
2023-01-11T00:34:11.949Z,988.56
2023-01-11T00:34:22.465Z,988.53
2023-01-11T00:34:32.958Z,988.54
2023-01-11T00:34:43.461Z,988.52
2023-01-11T00:34:53.981Z,988.55
2023-01-11T00:35:04.524Z,988.53
2023-01-11T00:35:14.987Z,988.55
2023-01-11T00:35:25.482Z,988.53
2023-01-11T00:35:35.987Z,988.54
2023-01-11T00:35:46.484Z,988.52
2023-01-11T00:35:57.007Z,988.50
2023-01-11T00:36:07.495Z,988.43
2023-01-11T00:36:17.999Z,988.51
2023-01-11T00:36:28.496Z,988.52
2023-01-11T00:36:38.999Z,988.48
2023-01-11T00:36:49.502Z,988.52
2023-01-11T00:37:00.025Z,988.48
2023-01-11T00:37:10.513Z,988.47
2023-01-11T00:37:21.010Z,988.49
2023-01-11T00:37:31.515Z,988.49
2023-01-11T00:37:42.025Z,988.40
2023-01-11T00:37:52.525Z,988.48
2023-01-11T00:38:03.025Z,988.46
2023-01-11T00:38:13.550Z,988.47
2023-01-11T00:38:24.035Z,988.40
2023-01-11T00:38:34.541Z,988.45
2023-01-11T00:38:45.054Z,988.38
2023-01-11T00:38:55.591Z,988.38
2023-01-11T00:39:06.065Z,988.38
2023-01-11T00:39:16.556Z,988.38
2023-01-11T00:39:27.054Z,988.35
2023-01-11T00:39:37.551Z,988.35
2023-01-11T00:39:48.064Z,988.32
2023-01-11T00:39:58.574Z,988.36
2023-01-11T00:40:09.087Z,988.28
2023-01-11T00:40:19.571Z,988.34
2023-01-11T00:40:30.075Z,988.30
2023-01-11T00:40:40.575Z,988.33
2023-01-11T00:40:51.079Z,988.31
2023-01-11T00:41:01.586Z,988.33
2023-01-11T00:41:12.090Z,988.27
2023-01-11T00:41:22.597Z,988.35
2023-01-11T00:41:33.103Z,988.34
2023-01-11T00:41:43.614Z,988.29
2023-01-11T00:41:54.106Z,988.33
2023-01-11T00:42:04.608Z,988.28
2023-01-11T00:42:15.115Z,988.29
2023-01-11T00:42:25.616Z,988.27
2023-01-11T00:42:36.121Z,988.25
2023-01-11T00:42:46.623Z,988.25
2023-01-11T00:42:57.146Z,988.32
2023-01-11T00:43:07.654Z,988.29
2023-01-11T00:43:18.134Z,988.27
2023-01-11T00:43:28.638Z,988.27
2023-01-11T00:43:39.147Z,988.28
2023-01-11T00:43:49.650Z,988.31
2023-01-11T00:44:00.143Z,988.31
2023-01-11T00:44:10.650Z,988.23
2023-01-11T00:44:21.147Z,988.29
2023-01-11T00:44:31.678Z,988.34
2023-01-11T00:44:42.166Z,988.29
2023-01-11T00:44:53.155Z,988.27
2023-01-11T00:45:03.660Z,988.24
2023-01-11T00:45:14.164Z,988.28
2023-01-11T00:45:24.665Z,988.27
2023-01-11T00:45:35.178Z,988.23
2023-01-11T00:45:45.675Z,988.27
2023-01-11T00:45:56.249Z,988.22
2023-01-11T00:46:06.771Z,988.22
2023-01-11T00:46:17.254Z,988.25
2023-01-11T00:46:27.729Z,988.26
2023-01-11T00:46:38.181Z,988.20
2023-01-11T00:46:48.683Z,988.28
2023-01-11T00:46:59.181Z,988.22
2023-01-11T00:47:09.694Z,988.26
2023-01-11T00:47:20.695Z,988.25
2023-01-11T00:47:31.193Z,988.24
2023-01-11T00:47:41.712Z,988.22
2023-01-11T00:47:52.198Z,988.27
2023-01-11T00:48:02.712Z,988.27
2023-01-11T00:48:13.200Z,988.22
2023-01-11T00:48:23.708Z,988.26
2023-01-11T00:48:34.207Z,988.24
2023-01-11T00:48:44.721Z,988.26
2023-01-11T00:48:55.215Z,988.24
2023-01-11T00:49:06.213Z,988.27
2023-01-11T00:49:16.718Z,988.23
2023-01-11T00:49:27.215Z,988.25
2023-01-11T00:49:37.745Z,988.18
2023-01-11T00:49:48.224Z,988.26
2023-01-11T00:49:58.740Z,988.25
2023-01-11T00:50:09.238Z,988.21
2023-01-11T00:50:19.750Z,988.21
2023-01-11T00:50:30.250Z,988.22
2023-01-11T00:50:40.767Z,988.21
2023-01-11T00:50:51.241Z,988.22
2023-01-11T00:51:01.744Z,988.19
2023-01-11T00:51:12.248Z,988.21
2023-01-11T00:51:22.751Z,988.21
2023-01-11T00:51:33.254Z,988.22
2023-01-11T00:51:43.757Z,988.24
2023-01-11T00:51:54.255Z,988.22
2023-01-11T00:52:04.786Z,988.20
2023-01-11T00:52:15.268Z,988.17
2023-01-11T00:52:25.802Z,988.22
2023-01-11T00:52:36.276Z,988.17
2023-01-11T00:52:46.785Z,988.14
2023-01-11T00:52:57.282Z,988.18
2023-01-11T00:53:07.789Z,988.05
2023-01-11T00:53:18.306Z,988.16
2023-01-11T00:53:28.806Z,988.16
2023-01-11T00:53:39.297Z,988.11
2023-01-11T00:53:49.805Z,988.14
2023-01-11T00:54:00.312Z,988.14
2023-01-11T00:54:10.817Z,988.10
2023-01-11T00:54:21.320Z,988.13
2023-01-11T00:54:31.823Z,988.09
2023-01-11T00:54:42.349Z,988.11
2023-01-11T00:54:52.840Z,988.04
2023-01-11T00:55:03.351Z,988.09
2023-01-11T00:55:13.864Z,988.12
2023-01-11T00:55:24.345Z,988.13
2023-01-11T00:55:34.855Z,988.08
2023-01-11T00:55:45.355Z,988.12
2023-01-11T00:55:55.864Z,988.10
2023-01-11T00:56:06.366Z,988.14
2023-01-11T00:56:16.871Z,988.05
2023-01-11T00:56:27.374Z,988.12
2023-01-11T00:56:37.903Z,988.17
2023-01-11T00:56:48.387Z,988.08
2023-01-11T00:56:58.887Z,988.15
2023-01-11T00:57:09.453Z,988.12
2023-01-11T00:57:19.901Z,988.14
2023-01-11T00:57:30.393Z,988.14
2023-01-11T00:57:40.905Z,988.14
2023-01-11T00:57:51.409Z,988.15
2023-01-11T00:58:01.916Z,988.16
2023-01-11T00:58:12.425Z,988.18
2023-01-11T00:58:22.918Z,988.20
2023-01-11T00:58:33.420Z,988.17
2023-01-11T00:58:43.928Z,988.11
2023-01-11T00:58:54.425Z,988.18
2023-01-11T00:59:04.936Z,988.15
2023-01-11T00:59:15.433Z,988.20
2023-01-11T00:59:25.963Z,988.17
2023-01-11T00:59:36.446Z,988.15
2023-01-11T00:59:46.949Z,988.17
2023-01-11T00:59:57.458Z,988.17
2023-01-11T01:00:07.981Z,988.15
2023-01-11T01:00:18.458Z,988.16
2023-01-11T01:00:28.985Z,988.18
2023-01-11T01:00:39.461Z,988.21
2023-01-11T01:00:49.966Z,988.14
2023-01-11T01:01:00.528Z,988.13
2023-01-11T01:01:10.978Z,988.21
2023-01-11T01:01:21.515Z,988.22
2023-01-11T01:01:32.039Z,988.21
2023-01-11T01:01:42.554Z,988.21
2023-01-11T01:01:52.991Z,988.16
2023-01-11T01:02:03.514Z,988.16
2023-01-11T01:02:14.045Z,988.21
2023-01-11T01:02:24.568Z,988.21
2023-01-11T01:02:35.129Z,988.22
2023-01-11T01:02:45.564Z,988.21
2023-01-11T01:02:56.146Z,988.30
2023-01-11T01:03:06.518Z,988.19
2023-01-11T01:03:17.023Z,988.22
2023-01-11T01:03:27.523Z,988.23
2023-01-11T01:03:38.023Z,988.23
2023-01-11T01:03:48.523Z,988.28
2023-01-11T01:03:59.033Z,988.27
2023-01-11T01:04:10.035Z,988.28
2023-01-11T01:04:20.535Z,988.29
2023-01-11T01:04:31.054Z,988.26
2023-01-11T01:04:41.546Z,988.28
2023-01-11T01:04:52.051Z,988.24
2023-01-11T01:05:02.569Z,988.29
2023-01-11T01:05:13.063Z,988.26
2023-01-11T01:05:23.565Z,988.28
2023-01-11T01:05:34.077Z,988.23
2023-01-11T01:05:44.581Z,988.26
2023-01-11T01:05:55.083Z,988.29
2023-01-11T01:06:05.592Z,988.27
2023-01-11T01:06:16.092Z,988.27
2023-01-11T01:06:26.637Z,988.26
2023-01-11T01:06:37.143Z,988.30
2023-01-11T01:06:47.773Z,988.29
2023-01-11T01:06:58.185Z,988.32
2023-01-11T01:07:08.655Z,988.28
2023-01-11T01:07:19.119Z,988.27
2023-01-11T01:07:29.620Z,988.29
2023-01-11T01:07:40.133Z,988.28
2023-01-11T01:07:50.661Z,988.31
2023-01-11T01:08:01.133Z,988.29
2023-01-11T01:08:11.633Z,988.26
2023-01-11T01:08:22.136Z,988.28
2023-01-11T01:08:32.631Z,988.30
2023-01-11T01:08:43.138Z,988.31
2023-01-11T01:08:53.636Z,988.26
2023-01-11T01:09:04.138Z,988.27
2023-01-11T01:09:14.644Z,988.31
2023-01-11T01:09:25.149Z,988.30
2023-01-11T01:09:35.657Z,988.31
2023-01-11T01:09:46.162Z,988.32
2023-01-11T01:09:56.672Z,988.29
2023-01-11T01:10:07.170Z,988.34
2023-01-11T01:10:17.669Z,988.30
2023-01-11T01:10:28.176Z,988.35
2023-01-11T01:10:38.691Z,988.36
2023-01-11T01:10:49.187Z,988.33
2023-01-11T01:10:59.692Z,988.35
2023-01-11T01:11:10.187Z,988.33
2023-01-11T01:11:20.692Z,988.32
2023-01-11T01:11:31.194Z,988.31
2023-01-11T01:11:41.691Z,988.34
2023-01-11T01:11:52.189Z,988.34
2023-01-11T01:12:02.694Z,988.30
2023-01-11T01:12:13.193Z,988.31
2023-01-11T01:12:23.695Z,988.31
2023-01-11T01:12:34.201Z,988.32
2023-01-11T01:12:44.724Z,988.30
2023-01-11T01:12:55.202Z,988.37
2023-01-11T01:13:05.704Z,988.29
2023-01-11T01:13:16.236Z,988.30
2023-01-11T01:13:26.707Z,988.25
2023-01-11T01:13:37.218Z,988.29
2023-01-11T01:13:47.723Z,988.30
2023-01-11T01:13:58.235Z,988.32
2023-01-11T01:14:08.727Z,988.27
2023-01-11T01:14:19.236Z,988.30
2023-01-11T01:14:29.741Z,988.31
2023-01-11T01:14:40.243Z,988.30
2023-01-11T01:14:50.750Z,988.32
2023-01-11T01:15:01.251Z,988.29
2023-01-11T01:15:11.757Z,988.30
2023-01-11T01:15:22.256Z,988.38
2023-01-11T01:15:32.895Z,988.29
2023-01-11T01:15:43.350Z,988.36
2023-01-11T01:15:53.828Z,988.31
2023-01-11T01:16:04.302Z,988.28
2023-01-11T01:16:14.852Z,988.31
2023-01-11T01:16:25.293Z,988.30
2023-01-11T01:16:35.793Z,988.31
2023-01-11T01:16:46.296Z,988.28
2023-01-11T01:16:56.798Z,988.29
2023-01-11T01:17:07.406Z,988.30
2023-01-11T01:17:17.802Z,988.28
2023-01-11T01:17:28.315Z,988.26
2023-01-11T01:17:38.810Z,988.28
2023-01-11T01:17:49.317Z,988.29
2023-01-11T01:17:59.811Z,988.26
2023-01-11T01:18:10.318Z,988.30
2023-01-11T01:18:20.820Z,988.32
2023-01-11T01:18:31.347Z,988.28
2023-01-11T01:18:41.829Z,988.29
2023-01-11T01:18:52.353Z,988.27
2023-01-11T01:19:02.833Z,988.25
2023-01-11T01:19:13.337Z,988.26
2023-01-11T01:19:23.835Z,988.27
2023-01-11T01:19:34.344Z,988.27
2023-01-11T01:19:44.850Z,988.26
2023-01-11T01:19:55.355Z,988.26
2023-01-11T01:20:05.878Z,988.27
2023-01-11T01:20:16.367Z,988.21
2023-01-11T01:20:26.875Z,988.23
2023-01-11T01:20:37.368Z,988.23
2023-01-11T01:20:47.893Z,988.23
2023-01-11T01:20:58.379Z,988.24
2023-01-11T01:21:08.881Z,988.19
2023-01-11T01:21:19.394Z,988.22
2023-01-11T01:21:29.900Z,988.22
2023-01-11T01:21:40.402Z,988.21
2023-01-11T01:21:50.903Z,988.23
2023-01-11T01:22:01.400Z,988.21
2023-01-11T01:22:11.923Z,988.22
2023-01-11T01:22:22.428Z,988.20
2023-01-11T01:22:32.916Z,988.22
2023-01-11T01:22:43.424Z,988.21
2023-01-11T01:22:53.925Z,988.21
2023-01-11T01:23:04.437Z,988.23
2023-01-11T01:23:14.943Z,988.25
2023-01-11T01:23:25.442Z,988.19
2023-01-11T01:23:35.945Z,988.22
2023-01-11T01:23:46.450Z,988.22
2023-01-11T01:23:56.949Z,988.26
2023-01-11T01:24:07.456Z,988.25
2023-01-11T01:24:17.956Z,988.23
2023-01-11T01:24:28.467Z,988.17
2023-01-11T01:24:38.989Z,988.22
2023-01-11T01:24:49.473Z,988.21
2023-01-11T01:24:59.985Z,988.25
2023-01-11T01:25:10.484Z,988.19
2023-01-11T01:25:20.996Z,988.17
2023-01-11T01:25:31.501Z,988.18
2023-01-11T01:25:42.004Z,988.16
2023-01-11T01:25:52.514Z,988.19
2023-01-11T01:26:03.006Z,988.17
2023-01-11T01:26:13.523Z,988.17
2023-01-11T01:26:24.012Z,988.19
2023-01-11T01:26:34.521Z,988.18
2023-01-11T01:26:45.023Z,988.21
2023-01-11T01:26:55.533Z,988.17
2023-01-11T01:27:06.036Z,988.18
2023-01-11T01:27:16.544Z,988.21
2023-01-11T01:27:27.043Z,988.15
2023-01-11T01:27:37.553Z,988.18
2023-01-11T01:27:48.058Z,988.12
2023-01-11T01:27:58.573Z,988.13
2023-01-11T01:28:09.069Z,988.14
2023-01-11T01:28:19.577Z,988.15
2023-01-11T01:28:30.072Z,988.17
2023-01-11T01:28:40.577Z,988.17
2023-01-11T01:28:51.081Z,988.15
2023-01-11T01:29:01.592Z,988.15
2023-01-11T01:29:12.089Z,988.12
2023-01-11T01:29:22.597Z,988.16
2023-01-11T01:29:33.100Z,988.18
2023-01-11T01:29:43.623Z,988.19
2023-01-11T01:29:54.103Z,988.17
2023-01-11T01:30:04.643Z,988.17
2023-01-11T01:30:15.115Z,988.17
2023-01-11T01:30:25.641Z,988.16
2023-01-11T01:30:36.122Z,988.18
2023-01-11T01:30:46.626Z,988.16
2023-01-11T01:30:57.192Z,988.14
2023-01-11T01:31:07.703Z,988.16
2023-01-11T01:31:18.221Z,988.18
2023-01-11T01:31:28.697Z,988.18
2023-01-11T01:31:39.157Z,988.16
2023-01-11T01:31:49.654Z,988.14
2023-01-11T01:32:00.152Z,988.18
2023-01-11T01:32:10.660Z,988.18
2023-01-11T01:32:21.171Z,988.19
2023-01-11T01:32:31.668Z,988.17
2023-01-11T01:32:42.168Z,988.20
2023-01-11T01:32:52.680Z,988.21
2023-01-11T01:33:03.180Z,988.21
2023-01-11T01:33:13.687Z,988.20
2023-01-11T01:33:24.200Z,988.22
2023-01-11T01:33:34.719Z,988.18
2023-01-11T01:33:45.204Z,988.20
2023-01-11T01:33:55.711Z,988.20
2023-01-11T01:34:06.212Z,988.21
2023-01-11T01:34:16.725Z,988.23
2023-01-11T01:34:27.221Z,988.23
2023-01-11T01:34:37.731Z,988.20
2023-01-11T01:34:48.347Z,988.25
2023-01-11T01:34:58.736Z,988.27
2023-01-11T01:35:09.244Z,988.26
2023-01-11T01:35:19.750Z,988.20
2023-01-11T01:35:30.258Z,988.23
2023-01-11T01:35:40.766Z,988.18
2023-01-11T01:35:51.269Z,988.23
2023-01-11T01:36:01.778Z,988.21
2023-01-11T01:36:12.297Z,988.19
2023-01-11T01:36:22.783Z,988.19
2023-01-11T01:36:33.290Z,988.19
2023-01-11T01:36:43.813Z,988.20
2023-01-11T01:36:54.310Z,988.17
2023-01-11T01:37:04.809Z,988.19
2023-01-11T01:37:15.327Z,988.18
2023-01-11T01:37:25.816Z,988.19
2023-01-11T01:37:36.316Z,988.20
2023-01-11T01:37:46.831Z,988.20
2023-01-11T01:37:57.329Z,988.14
2023-01-11T01:38:07.837Z,988.18
2023-01-11T01:38:18.346Z,988.16
2023-01-11T01:38:28.849Z,988.13
2023-01-11T01:38:39.351Z,988.17
2023-01-11T01:38:49.857Z,988.16
2023-01-11T01:39:00.361Z,988.14
2023-01-11T01:39:10.872Z,988.16
2023-01-11T01:39:21.379Z,988.19
2023-01-11T01:39:31.888Z,988.17
2023-01-11T01:39:42.390Z,988.19
2023-01-11T01:39:52.903Z,988.14
2023-01-11T01:40:03.396Z,988.17
2023-01-11T01:40:13.933Z,988.15
2023-01-11T01:40:24.402Z,988.18
2023-01-11T01:40:34.920Z,988.19
2023-01-11T01:40:45.408Z,988.15
2023-01-11T01:40:55.920Z,988.16
2023-01-11T01:41:06.416Z,988.14
2023-01-11T01:41:16.926Z,988.17
2023-01-11T01:41:27.424Z,988.18
2023-01-11T01:41:37.943Z,988.23
2023-01-11T01:41:48.458Z,988.12
2023-01-11T01:41:58.941Z,988.17
2023-01-11T01:42:09.445Z,988.21
2023-01-11T01:42:19.950Z,988.19
2023-01-11T01:42:30.481Z,988.22
2023-01-11T01:42:40.957Z,988.14
2023-01-11T01:42:51.461Z,988.22
2023-01-11T01:43:01.968Z,988.19
2023-01-11T01:43:12.473Z,988.20
2023-01-11T01:43:22.974Z,988.21
2023-01-11T01:43:33.484Z,988.23
2023-01-11T01:43:43.981Z,988.19
2023-01-11T01:43:54.497Z,988.19
2023-01-11T01:44:04.988Z,988.20
2023-01-11T01:44:15.489Z,988.21
2023-01-11T01:44:26.004Z,988.20
2023-01-11T01:44:36.496Z,988.18
2023-01-11T01:44:47.007Z,988.18
2023-01-11T01:44:57.498Z,988.16
2023-01-11T01:45:08.011Z,988.18
2023-01-11T01:45:18.512Z,988.17
2023-01-11T01:45:29.020Z,988.14
2023-01-11T01:45:39.516Z,988.16
2023-01-11T01:45:50.116Z,988.12
2023-01-11T01:46:00.581Z,988.09
2023-01-11T01:46:11.046Z,988.11
2023-01-11T01:46:21.643Z,988.15
2023-01-11T01:46:32.103Z,988.12
2023-01-11T01:46:42.588Z,988.13
2023-01-11T01:46:53.041Z,988.10
2023-01-11T01:47:03.555Z,988.13
2023-01-11T01:47:14.049Z,988.10
2023-01-11T01:47:24.559Z,988.07
2023-01-11T01:47:35.114Z,988.09
2023-01-11T01:47:45.560Z,988.09
2023-01-11T01:47:56.063Z,988.10
2023-01-11T01:48:06.569Z,988.08
2023-01-11T01:48:17.075Z,988.06
2023-01-11T01:48:27.577Z,988.07
2023-01-11T01:48:38.080Z,988.02
2023-01-11T01:48:48.583Z,988.07
2023-01-11T01:48:59.094Z,988.07
2023-01-11T01:49:09.591Z,988.07
2023-01-11T01:49:20.092Z,987.98
2023-01-11T01:49:30.595Z,988.02
2023-01-11T01:49:41.100Z,988.03
2023-01-11T01:49:51.605Z,988.02
2023-01-11T01:50:02.116Z,987.99
2023-01-11T01:50:12.644Z,988.00
2023-01-11T01:50:23.141Z,988.04
2023-01-11T01:50:33.623Z,988.03
2023-01-11T01:50:44.126Z,988.05
2023-01-11T01:50:54.621Z,988.04
2023-01-11T01:51:05.128Z,988.09
2023-01-11T01:51:15.625Z,988.08
2023-01-11T01:51:26.134Z,988.04
2023-01-11T01:51:36.631Z,988.07
2023-01-11T01:51:47.154Z,988.08
2023-01-11T01:51:57.637Z,988.03
2023-01-11T01:52:08.144Z,988.06
2023-01-11T01:52:18.660Z,988.05
2023-01-11T01:52:29.283Z,988.11
2023-01-11T01:52:39.652Z,988.07
2023-01-11T01:52:50.153Z,988.05
2023-01-11T01:53:00.658Z,988.15
2023-01-11T01:53:11.164Z,988.05
2023-01-11T01:53:21.674Z,988.09
2023-01-11T01:53:32.177Z,988.07
2023-01-11T01:53:42.670Z,988.07
2023-01-11T01:53:53.210Z,988.05
2023-01-11T01:54:03.675Z,988.06
2023-01-11T01:54:14.191Z,988.02
2023-01-11T01:54:24.680Z,988.02
2023-01-11T01:54:35.192Z,988.05
2023-01-11T01:54:45.707Z,988.04
2023-01-11T01:54:56.196Z,987.99
2023-01-11T01:55:06.694Z,988.01
2023-01-11T01:55:17.266Z,988.02
2023-01-11T01:55:28.207Z,987.99
2023-01-11T01:55:38.707Z,988.02
2023-01-11T01:55:49.210Z,988.05
2023-01-11T01:55:59.746Z,988.02
2023-01-11T01:56:10.226Z,988.06
2023-01-11T01:56:20.717Z,988.02
2023-01-11T01:56:31.220Z,988.03
2023-01-11T01:56:41.729Z,988.03
2023-01-11T01:56:52.231Z,988.04
2023-01-11T01:57:02.732Z,988.04
2023-01-11T01:57:13.237Z,988.06
2023-01-11T01:57:23.743Z,988.06
2023-01-11T01:57:34.254Z,988.03
2023-01-11T01:57:44.747Z,988.08
2023-01-11T01:57:55.248Z,988.08
2023-01-11T01:58:05.753Z,988.05
2023-01-11T01:58:16.265Z,988.04
2023-01-11T01:58:26.767Z,988.05
2023-01-11T01:58:37.263Z,988.03
2023-01-11T01:58:47.788Z,988.04
2023-01-11T01:58:58.271Z,988.03
2023-01-11T01:59:08.777Z,988.02
2023-01-11T01:59:19.278Z,988.03
2023-01-11T01:59:29.780Z,988.04
2023-01-11T01:59:40.288Z,988.03
2023-01-11T01:59:50.792Z,988.01
2023-01-11T02:00:01.298Z,988.01
2023-01-11T02:00:11.792Z,988.03
2023-01-11T02:00:22.318Z,987.97
2023-01-11T02:00:32.819Z,987.99
2023-01-11T02:00:43.313Z,987.99
2023-01-11T02:00:53.802Z,988.00
2023-01-11T02:01:04.315Z,988.01
2023-01-11T02:01:14.816Z,988.01
2023-01-11T02:01:25.335Z,987.97
2023-01-11T02:01:35.906Z,987.98
2023-01-11T02:01:46.367Z,987.96
2023-01-11T02:01:56.899Z,988.00
2023-01-11T02:02:07.340Z,987.99
2023-01-11T02:02:17.844Z,987.94
2023-01-11T02:02:28.390Z,987.95
2023-01-11T02:02:38.888Z,987.95
2023-01-11T02:02:49.449Z,987.95
2023-01-11T02:02:59.920Z,987.96
2023-01-11T02:03:10.469Z,987.92
2023-01-11T02:03:20.876Z,987.92
2023-01-11T02:03:31.377Z,987.91
2023-01-11T02:03:41.884Z,987.89
2023-01-11T02:03:52.396Z,987.91
2023-01-11T02:04:02.887Z,987.94
2023-01-11T02:04:13.396Z,987.89
2023-01-11T02:04:23.898Z,987.91
2023-01-11T02:04:34.418Z,987.92
2023-01-11T02:04:44.910Z,987.95
2023-01-11T02:04:55.412Z,987.94
2023-01-11T02:05:05.923Z,987.95
2023-01-11T02:05:16.423Z,987.95
2023-01-11T02:05:26.936Z,987.97
2023-01-11T02:05:37.448Z,987.94
2023-01-11T02:05:47.928Z,987.92
2023-01-11T02:05:58.435Z,987.93
2023-01-11T02:06:08.943Z,987.90
2023-01-11T02:06:19.444Z,987.88
2023-01-11T02:06:29.973Z,987.91
2023-01-11T02:06:40.517Z,987.90
2023-01-11T02:06:51.023Z,987.93
2023-01-11T02:07:01.455Z,987.89
2023-01-11T02:07:11.965Z,987.91
2023-01-11T02:07:22.484Z,987.90
2023-01-11T02:07:32.981Z,987.88
2023-01-11T02:07:43.474Z,987.92
2023-01-11T02:07:53.973Z,987.90
2023-01-11T02:08:04.500Z,987.94
2023-01-11T02:08:14.995Z,987.86
2023-01-11T02:08:25.487Z,987.88
2023-01-11T02:08:36.003Z,987.89
2023-01-11T02:08:46.497Z,987.90
2023-01-11T02:08:56.991Z,987.90
2023-01-11T02:09:07.515Z,987.89
2023-01-11T02:09:18.015Z,987.93
2023-01-11T02:09:28.503Z,987.87
2023-01-11T02:09:39.002Z,987.89
2023-01-11T02:09:49.517Z,987.91
2023-01-11T02:10:00.510Z,987.87
2023-01-11T02:10:11.011Z,987.89
2023-01-11T02:10:22.011Z,987.85
2023-01-11T02:10:32.517Z,987.83
2023-01-11T02:10:43.014Z,987.85
2023-01-11T02:10:53.530Z,987.85
2023-01-11T02:11:04.044Z,987.84